sensor_id;sensor_type;location;lat;lon;timestamp;pressure;altitude;pressure_sealevel;temperature;humidity
47706;BME280;33471;52.104;1.318;2022-11-15T00:00:32;100072.54;;;13.59;59.20
47706;BME280;33471;52.104;1.318;2022-11-15T00:02:59;100073.57;;;13.84;56.96
47706;BME280;33471;52.104;1.318;2022-11-15T00:05:26;100077.58;;;14.39;57.70
47706;BME280;33471;52.104;1.318;2022-11-15T00:07:54;100083.34;;;13.18;58.08
47706;BME280;33471;52.104;1.318;2022-11-15T00:10:23;100082.45;;;14.05;57.58
47706;BME280;33471;52.104;1.318;2022-11-15T00:12:51;100086.35;;;13.36;58.00
47706;BME280;33471;52.104;1.318;2022-11-15T00:15:18;100089.39;;;13.59;57.98
47706;BME280;33471;52.104;1.318;2022-11-15T00:17:49;100090.30;;;14.32;58.26
47706;BME280;33471;52.104;1.318;2022-11-15T00:20:16;100090.23;;;13.83;58.38
47706;BME280;33471;52.104;1.318;2022-11-15T00:22:43;100087.39;;;14.05;56.82
47706;BME280;33471;52.104;1.318;2022-11-15T00:25:10;100082.49;;;14.25;56.21
47706;BME280;33471;52.104;1.318;2022-11-15T00:27:38;100085.81;;;14.85;54.67
47706;BME280;33471;52.104;1.318;2022-11-15T00:30:06;100091.71;;;15.11;53.82
47706;BME280;33471;52.104;1.318;2022-11-15T00:32:33;100095.05;;;15.55;53.78
47706;BME280;33471;52.104;1.318;2022-11-15T00:35:00;100096.17;;;14.47;54.56
47706;BME280;33471;52.104;1.318;2022-11-15T00:37:27;100092.97;;;15.41;53.77
47706;BME280;33471;52.104;1.318;2022-11-15T00:39:54;100083.76;;;15.25;52.03
47706;BME280;33471;52.104;1.318;2022-11-15T00:42:22;100085.92;;;14.52;54.40
47706;BME280;33471;52.104;1.318;2022-11-15T00:44:50;100080.97;;;13.94;56.19
47706;BME280;33471;52.104;1.318;2022-11-15T00:47:17;100080.12;;;14.89;54.33
47706;BME280;33471;52.104;1.318;2022-11-15T00:49:44;100079.25;;;15.29;52.98
47706;BME280;33471;52.104;1.318;2022-11-15T00:52:11;100075.59;;;14.64;54.31
47706;BME280;33471;52.104;1.318;2022-11-15T00:54:38;100071.32;;;13.98;56.11
47706;BME280;33471;52.104;1.318;2022-11-15T00:57:05;100072.71;;;14.34;54.04
47706;BME280;33471;52.104;1.318;2022-11-15T00:59:33;100074.80;;;13.91;55.83
47706;BME280;33471;52.104;1.318;2022-11-15T01:02:00;100070.20;;;13.24;56.15
47706;BME280;33471;52.104;1.318;2022-11-15T01:04:27;100077.50;;;13.13;57.60
47706;BME280;33471;52.104;1.318;2022-11-15T01:06:55;100083.36;;;12.87;57.14
47706;BME280;33471;52.104;1.318;2022-11-15T01:09:22;100084.24;;;12.97;57.07
47706;BME280;33471;52.104;1.318;2022-11-15T01:11:50;100083.85;;;12.65;56.52
47706;BME280;33471;52.104;1.318;2022-11-15T01:14:17;100081.67;;;12.10;56.58
47706;BME280;33471;52.104;1.318;2022-11-15T01:16:44;100082.44;;;11.85;57.30
47706;BME280;33471;52.104;1.318;2022-11-15T01:19:11;100080.94;;;12.12;55.01
47706;BME280;33471;52.104;1.318;2022-11-15T01:21:38;100083.07;;;12.67;54.12
47706;BME280;33471;52.104;1.318;2022-11-15T01:24:07;100082.06;;;12.33;53.68
47706;BME280;33471;52.104;1.318;2022-11-15T01:26:34;100078.81;;;13.80;52.03
47706;BME280;33471;52.104;1.318;2022-11-15T01:29:02;100076.76;;;12.31;54.00
47706;BME280;33471;52.104;1.318;2022-11-15T01:31:29;100068.56;;;13.76;51.96
47706;BME280;33471;52.104;1.318;2022-11-15T01:33:57;100064.14;;;12.72;51.86
47706;BME280;33471;52.104;1.318;2022-11-15T01:36:24;100064.17;;;12.97;51.95
47706;BME280;33471;52.104;1.318;2022-11-15T01:38:54;100056.06;;;11.72;53.54
47706;BME280;33471;52.104;1.318;2022-11-15T01:41:25;100050.16;;;11.45;54.56
47706;BME280;33471;52.104;1.318;2022-11-15T01:43:55;100052.41;;;10.38;56.15
47706;BME280;33471;52.104;1.318;2022-11-15T01:46:27;100047.70;;;11.30;54.18
47706;BME280;33471;52.104;1.318;2022-11-15T01:49:00;100044.80;;;11.92;52.54
47706;BME280;33471;52.104;1.318;2022-11-15T01:51:31;100038.77;;;13.53;49.66
47706;BME280;33471;52.104;1.318;2022-11-15T01:54:03;100035.50;;;13.69;49.22
47706;BME280;33471;52.104;1.318;2022-11-15T01:56:38;100024.84;;;13.71;48.85
47706;BME280;33471;52.104;1.318;2022-11-15T01:59:10;100024.02;;;13.47;48.76
47706;BME280;33471;52.104;1.318;2022-11-15T02:01:38;100022.46;;;13.90;48.47
47706;BME280;33471;52.104;1.318;2022-11-15T02:04:11;100016.13;;;13.51;48.83
47706;BME280;33471;52.104;1.318;2022-11-15T02:06:40;100011.06;;;14.11;49.04
47706;BME280;33471;52.104;1.318;2022-11-15T02:09:08;100011.93;;;13.89;48.62
47706;BME280;33471;52.104;1.318;2022-11-15T02:11:35;100012.02;;;13.78;48.62
47706;BME280;33471;52.104;1.318;2022-11-15T02:14:05;100010.06;;;14.06;47.52
47706;BME280;33471;52.104;1.318;2022-11-15T02:16:41;100007.65;;;13.65;47.85
47706;BME280;33471;52.104;1.318;2022-11-15T02:19:21;100012.42;;;14.10;46.99
47706;BME280;33471;52.104;1.318;2022-11-15T02:22:07;100009.27;;;12.81;47.98
47706;BME280;33471;52.104;1.318;2022-11-15T02:24:52;100003.85;;;13.96;47.52
47706;BME280;33471;52.104;1.318;2022-11-15T02:27:43;100002.73;;;13.93;47.84
47706;BME280;33471;52.104;1.318;2022-11-15T02:30:21;99994.55;;;13.42;48.18
47706;BME280;33471;52.104;1.318;2022-11-15T02:32:52;99993.52;;;14.16;47.08
47706;BME280;33471;52.104;1.318;2022-11-15T02:35:29;99990.77;;;13.62;46.64
47706;BME280;33471;52.104;1.318;2022-11-15T02:38:07;99990.32;;;13.27;47.28
47706;BME280;33471;52.104;1.318;2022-11-15T02:40:41;99987.35;;;14.41;46.44
47706;BME280;33471;52.104;1.318;2022-11-15T02:43:20;99984.88;;;13.80;46.70
47706;BME280;33471;52.104;1.318;2022-11-15T02:45:53;99976.98;;;13.83;46.70
47706;BME280;33471;52.104;1.318;2022-11-15T02:48:24;99974.40;;;13.57;46.99
47706;BME280;33471;52.104;1.318;2022-11-15T02:50:53;99973.33;;;13.83;46.58
47706;BME280;33471;52.104;1.318;2022-11-15T02:53:24;99974.22;;;13.83;46.61
47706;BME280;33471;52.104;1.318;2022-11-15T02:55:54;99971.62;;;13.80;46.69
47706;BME280;33471;52.104;1.318;2022-11-15T02:58:38;99964.16;;;13.52;46.92
47706;BME280;33471;52.104;1.318;2022-11-15T03:01:13;99961.81;;;14.02;46.06
47706;BME280;33471;52.104;1.318;2022-11-15T03:03:56;99964.95;;;14.10;46.11
47706;BME280;33471;52.104;1.318;2022-11-15T03:06:34;99964.95;;;14.14;45.91
47706;BME280;33471;52.104;1.318;2022-11-15T03:09:05;99963.82;;;14.00;46.42
47706;BME280;33471;52.104;1.318;2022-11-15T03:11:36;99959.31;;;13.89;46.86
47706;BME280;33471;52.104;1.318;2022-11-15T03:14:15;99954.81;;;13.32;46.80
47706;BME280;33471;52.104;1.318;2022-11-15T03:16:49;99950.56;;;13.81;46.56
47706;BME280;33471;52.104;1.318;2022-11-15T03:19:22;99949.78;;;13.55;46.95
47706;BME280;33471;52.104;1.318;2022-11-15T03:21:54;99948.18;;;13.05;47.06
47706;BME280;33471;52.104;1.318;2022-11-15T03:24:24;99946.04;;;13.57;46.89
47706;BME280;33471;52.104;1.318;2022-11-15T03:26:54;99945.93;;;13.11;46.73
47706;BME280;33471;52.104;1.318;2022-11-15T03:29:26;99941.01;;;13.79;46.45
47706;BME280;33471;52.104;1.318;2022-11-15T03:31:58;99937.84;;;13.15;46.41
47706;BME280;33471;52.104;1.318;2022-11-15T03:34:29;99939.48;;;13.73;46.55
47706;BME280;33471;52.104;1.318;2022-11-15T03:36:58;99936.22;;;13.17;46.46
47706;BME280;33471;52.104;1.318;2022-11-15T03:39:26;99932.76;;;13.50;46.69
47706;BME280;33471;52.104;1.318;2022-11-15T03:42:04;99933.18;;;13.27;46.52
47706;BME280;33471;52.104;1.318;2022-11-15T03:44:41;99932.77;;;13.79;46.45
47706;BME280;33471;52.104;1.318;2022-11-15T03:47:16;99935.15;;;13.66;46.15
47706;BME280;33471;52.104;1.318;2022-11-15T03:49:46;99928.16;;;13.51;46.73
47706;BME280;33471;52.104;1.318;2022-11-15T03:52:18;99928.96;;;13.77;46.30
47706;BME280;33471;52.104;1.318;2022-11-15T03:54:55;99926.04;;;14.19;46.20
47706;BME280;33471;52.104;1.318;2022-11-15T03:57:23;99924.11;;;13.63;46.09
47706;BME280;33471;52.104;1.318;2022-11-15T03:59:50;99919.24;;;13.61;46.15
47706;BME280;33471;52.104;1.318;2022-11-15T04:02:17;99921.03;;;13.49;46.03
47706;BME280;33471;52.104;1.318;2022-11-15T04:04:44;99918.21;;;13.73;45.88
47706;BME280;33471;52.104;1.318;2022-11-15T04:07:12;99915.40;;;13.62;45.90
47706;BME280;33471;52.104;1.318;2022-11-15T04:09:39;99912.87;;;13.44;46.13
47706;BME280;33471;52.104;1.318;2022-11-15T04:12:06;99912.43;;;13.16;46.10
47706;BME280;33471;52.104;1.318;2022-11-15T04:14:38;99908.50;;;13.14;46.03
47706;BME280;33471;52.104;1.318;2022-11-15T04:17:05;99904.59;;;13.00;46.22
47706;BME280;33471;52.104;1.318;2022-11-15T04:19:32;99901.19;;;13.24;46.20
47706;BME280;33471;52.104;1.318;2022-11-15T04:21:59;99898.88;;;12.58;46.37
47706;BME280;33471;52.104;1.318;2022-11-15T04:24:26;99896.14;;;12.93;46.54
47706;BME280;33471;52.104;1.318;2022-11-15T04:26:54;99894.97;;;12.27;47.00
47706;BME280;33471;52.104;1.318;2022-11-15T04:29:21;99894.57;;;13.01;46.98
47706;BME280;33471;52.104;1.318;2022-11-15T04:31:49;99897.50;;;12.80;47.36
47706;BME280;33471;52.104;1.318;2022-11-15T04:34:17;99891.87;;;12.96;47.40
47706;BME280;33471;52.104;1.318;2022-11-15T04:36:44;99884.99;;;13.25;47.30
47706;BME280;33471;52.104;1.318;2022-11-15T04:39:11;99879.41;;;12.81;47.85
47706;BME280;33471;52.104;1.318;2022-11-15T04:41:38;99877.61;;;12.84;47.70
47706;BME280;33471;52.104;1.318;2022-11-15T04:44:05;99874.00;;;12.75;47.55
47706;BME280;33471;52.104;1.318;2022-11-15T04:46:32;99874.04;;;13.01;47.70
47706;BME280;33471;52.104;1.318;2022-11-15T04:48:59;99873.63;;;12.22;48.13
47706;BME280;33471;52.104;1.318;2022-11-15T04:51:26;99871.00;;;12.80;48.41
47706;BME280;33471;52.104;1.318;2022-11-15T04:53:54;99869.16;;;12.01;48.44
47706;BME280;33471;52.104;1.318;2022-11-15T04:56:21;99868.53;;;12.97;48.42
47706;BME280;33471;52.104;1.318;2022-11-15T04:58:49;99863.28;;;12.67;48.80
47706;BME280;33471;52.104;1.318;2022-11-15T05:01:16;99862.06;;;13.23;48.60
47706;BME280;33471;52.104;1.318;2022-11-15T05:03:44;99858.08;;;12.78;48.91
47706;BME280;33471;52.104;1.318;2022-11-15T05:06:12;99857.65;;;11.96;51.09
47706;BME280;33471;52.104;1.318;2022-11-15T05:08:39;99856.45;;;12.19;50.88
47706;BME280;33471;52.104;1.318;2022-11-15T05:11:06;99846.48;;;12.66;49.85
47706;BME280;33471;52.104;1.318;2022-11-15T05:13:33;99840.06;;;12.22;51.03
47706;BME280;33471;52.104;1.318;2022-11-15T05:16:00;99833.63;;;11.86;50.55
47706;BME280;33471;52.104;1.318;2022-11-15T05:18:27;99837.30;;;13.25;50.15
47706;BME280;33471;52.104;1.318;2022-11-15T05:20:54;99839.78;;;12.79;50.43
47706;BME280;33471;52.104;1.318;2022-11-15T05:23:21;99837.65;;;12.51;51.04
47706;BME280;33471;52.104;1.318;2022-11-15T05:25:49;99838.85;;;13.03;50.36
47706;BME280;33471;52.104;1.318;2022-11-15T05:28:16;99832.37;;;12.37;52.80
47706;BME280;33471;52.104;1.318;2022-11-15T05:30:43;99822.76;;;12.36;53.05
47706;BME280;33471;52.104;1.318;2022-11-15T05:33:10;99818.15;;;12.16;52.85
47706;BME280;33471;52.104;1.318;2022-11-15T05:35:42;99824.45;;;12.12;53.48
47706;BME280;33471;52.104;1.318;2022-11-15T05:38:13;99813.65;;;12.23;53.25
47706;BME280;33471;52.104;1.318;2022-11-15T05:40:40;99814.34;;;12.74;52.94
47706;BME280;33471;52.104;1.318;2022-11-15T05:43:07;99816.02;;;11.79;54.23
47706;BME280;33471;52.104;1.318;2022-11-15T05:45:35;99812.02;;;12.19;55.07
47706;BME280;33471;52.104;1.318;2022-11-15T05:48:06;99809.67;;;12.46;54.03
47706;BME280;33471;52.104;1.318;2022-11-15T05:50:37;99804.62;;;12.50;53.70
47706;BME280;33471;52.104;1.318;2022-11-15T05:53:06;99801.04;;;12.57;52.51
47706;BME280;33471;52.104;1.318;2022-11-15T05:55:33;99800.52;;;13.14;52.37
47706;BME280;33471;52.104;1.318;2022-11-15T05:58:01;99798.23;;;12.73;52.32
47706;BME280;33471;52.104;1.318;2022-11-15T06:00:28;99794.60;;;13.05;53.72
47706;BME280;33471;52.104;1.318;2022-11-15T06:02:56;99795.90;;;12.26;53.60
47706;BME280;33471;52.104;1.318;2022-11-15T06:05:23;99786.75;;;12.46;53.81
47706;BME280;33471;52.104;1.318;2022-11-15T06:07:50;99781.86;;;12.25;55.07
47706;BME280;33471;52.104;1.318;2022-11-15T06:10:17;99778.48;;;12.62;54.03
47706;BME280;33471;52.104;1.318;2022-11-15T06:12:44;99772.22;;;12.70;53.66
47706;BME280;33471;52.104;1.318;2022-11-15T06:15:11;99772.25;;;12.39;54.40
47706;BME280;33471;52.104;1.318;2022-11-15T06:17:38;99774.67;;;12.55;54.48
47706;BME280;33471;52.104;1.318;2022-11-15T06:20:06;99772.08;;;12.25;54.83
47706;BME280;33471;52.104;1.318;2022-11-15T06:22:33;99763.20;;;12.77;54.20
47706;BME280;33471;52.104;1.318;2022-11-15T06:25:00;99764.40;;;12.56;53.96
47706;BME280;33471;52.104;1.318;2022-11-15T06:27:27;99756.05;;;12.63;54.74
47706;BME280;33471;52.104;1.318;2022-11-15T06:29:55;99758.10;;;11.62;56.09
47706;BME280;33471;52.104;1.318;2022-11-15T06:32:22;99759.51;;;12.62;54.67
47706;BME280;33471;52.104;1.318;2022-11-15T06:34:50;99750.47;;;12.66;55.19
47706;BME280;33471;52.104;1.318;2022-11-15T06:37:17;99751.56;;;12.43;55.67
47706;BME280;33471;52.104;1.318;2022-11-15T06:39:44;99751.47;;;12.97;54.91
47706;BME280;33471;52.104;1.318;2022-11-15T06:42:12;99748.05;;;12.89;54.31
47706;BME280;33471;52.104;1.318;2022-11-15T06:44:39;99745.89;;;13.21;53.99
47706;BME280;33471;52.104;1.318;2022-11-15T06:47:06;99744.75;;;12.96;55.10
47706;BME280;33471;52.104;1.318;2022-11-15T06:49:33;99740.05;;;12.99;54.97
47706;BME280;33471;52.104;1.318;2022-11-15T06:52:01;99734.96;;;12.76;54.30
47706;BME280;33471;52.104;1.318;2022-11-15T06:54:28;99732.37;;;12.68;56.40
47706;BME280;33471;52.104;1.318;2022-11-15T06:56:55;99730.08;;;12.31;56.16
47706;BME280;33471;52.104;1.318;2022-11-15T06:59:22;99727.86;;;12.44;56.70
47706;BME280;33471;52.104;1.318;2022-11-15T07:01:50;99722.05;;;12.64;56.11
47706;BME280;33471;52.104;1.318;2022-11-15T07:04:19;99720.43;;;12.77;55.74
47706;BME280;33471;52.104;1.318;2022-11-15T07:06:46;99719.46;;;12.14;57.44
47706;BME280;33471;52.104;1.318;2022-11-15T07:09:14;99718.77;;;12.28;58.01
47706;BME280;33471;52.104;1.318;2022-11-15T07:11:42;99718.92;;;11.99;57.29
47706;BME280;33471;52.104;1.318;2022-11-15T07:14:10;99716.56;;;12.59;55.78
47706;BME280;33471;52.104;1.318;2022-11-15T07:16:37;99709.50;;;12.95;55.42
47706;BME280;33471;52.104;1.318;2022-11-15T07:19:05;99712.10;;;13.12;54.49
47706;BME280;33471;52.104;1.318;2022-11-15T07:21:32;99715.51;;;12.77;55.88
47706;BME280;33471;52.104;1.318;2022-11-15T07:24:00;99705.12;;;12.95;54.35
47706;BME280;33471;52.104;1.318;2022-11-15T07:26:27;99704.08;;;13.30;55.10
47706;BME280;33471;52.104;1.318;2022-11-15T07:28:55;99704.34;;;13.12;53.64
47706;BME280;33471;52.104;1.318;2022-11-15T07:31:23;99698.83;;;13.66;52.73
47706;BME280;33471;52.104;1.318;2022-11-15T07:33:50;99703.03;;;13.47;53.17
47706;BME280;33471;52.104;1.318;2022-11-15T07:36:18;99704.86;;;13.17;53.69
47706;BME280;33471;52.104;1.318;2022-11-15T07:38:44;99702.91;;;13.52;55.10
47706;BME280;33471;52.104;1.318;2022-11-15T07:41:11;99698.47;;;13.08;55.05
47706;BME280;33471;52.104;1.318;2022-11-15T07:43:38;99693.47;;;13.17;54.89
47706;BME280;33471;52.104;1.318;2022-11-15T07:46:07;99689.01;;;13.27;54.16
47706;BME280;33471;52.104;1.318;2022-11-15T07:48:35;99686.56;;;13.78;53.11
47706;BME280;33471;52.104;1.318;2022-11-15T07:51:02;99687.88;;;12.59;54.78
47706;BME280;33471;52.104;1.318;2022-11-15T07:53:30;99687.86;;;13.17;56.38
47706;BME280;33471;52.104;1.318;2022-11-15T07:55:57;99689.60;;;12.29;56.29
47706;BME280;33471;52.104;1.318;2022-11-15T07:58:24;99674.21;;;12.59;56.76
47706;BME280;33471;52.104;1.318;2022-11-15T08:00:52;99689.58;;;12.43;56.89
47706;BME280;33471;52.104;1.318;2022-11-15T08:03:19;99684.19;;;12.72;56.24
47706;BME280;33471;52.104;1.318;2022-11-15T08:05:51;99676.14;;;13.15;56.93
47706;BME280;33471;52.104;1.318;2022-11-15T08:08:19;99668.74;;;12.41;58.05
47706;BME280;33471;52.104;1.318;2022-11-15T08:10:45;99676.66;;;12.63;57.60
47706;BME280;33471;52.104;1.318;2022-11-15T08:13:13;99676.50;;;12.26;57.32
47706;BME280;33471;52.104;1.318;2022-11-15T08:15:41;99668.79;;;13.42;54.71
47706;BME280;33471;52.104;1.318;2022-11-15T08:18:11;99670.97;;;13.21;55.18
47706;BME280;33471;52.104;1.318;2022-11-15T08:20:39;99670.34;;;13.65;54.52
47706;BME280;33471;52.104;1.318;2022-11-15T08:23:09;99662.16;;;13.46;54.48
47706;BME280;33471;52.104;1.318;2022-11-15T08:25:37;99660.47;;;13.19;55.15
47706;BME280;33471;52.104;1.318;2022-11-15T08:28:06;99662.10;;;13.21;54.77
47706;BME280;33471;52.104;1.318;2022-11-15T08:30:36;99667.34;;;13.35;54.55
47706;BME280;33471;52.104;1.318;2022-11-15T08:33:04;99664.97;;;12.98;54.71
47706;BME280;33471;52.104;1.318;2022-11-15T08:35:32;99653.74;;;13.88;53.45
47706;BME280;33471;52.104;1.318;2022-11-15T08:37:59;99663.46;;;12.69;54.13
47706;BME280;33471;52.104;1.318;2022-11-15T08:40:27;99647.99;;;13.37;53.43
47706;BME280;33471;52.104;1.318;2022-11-15T08:42:54;99645.16;;;14.28;51.35
47706;BME280;33471;52.104;1.318;2022-11-15T08:45:21;99635.89;;;13.34;54.21
47706;BME280;33471;52.104;1.318;2022-11-15T08:47:49;99634.36;;;13.52;54.02
47706;BME280;33471;52.104;1.318;2022-11-15T08:50:16;99622.24;;;12.77;56.99
47706;BME280;33471;52.104;1.318;2022-11-15T08:52:43;99625.71;;;13.09;56.85
47706;BME280;33471;52.104;1.318;2022-11-15T08:55:10;99621.61;;;12.16;57.01
47706;BME280;33471;52.104;1.318;2022-11-15T08:57:38;99613.60;;;12.64;55.87
47706;BME280;33471;52.104;1.318;2022-11-15T09:00:06;99616.08;;;12.77;55.78
47706;BME280;33471;52.104;1.318;2022-11-15T09:02:34;99612.01;;;13.21;55.14
47706;BME280;33471;52.104;1.318;2022-11-15T09:05:01;99608.49;;;13.65;52.97
47706;BME280;33471;52.104;1.318;2022-11-15T09:07:29;99602.42;;;13.71;53.87
47706;BME280;33471;52.104;1.318;2022-11-15T09:09:57;99594.31;;;12.58;54.12
47706;BME280;33471;52.104;1.318;2022-11-15T09:12:24;99593.57;;;13.19;54.72
47706;BME280;33471;52.104;1.318;2022-11-15T09:14:52;99590.51;;;13.25;54.07
47706;BME280;33471;52.104;1.318;2022-11-15T09:17:19;99586.94;;;12.81;54.35
47706;BME280;33471;52.104;1.318;2022-11-15T09:19:46;99581.59;;;13.79;53.24
47706;BME280;33471;52.104;1.318;2022-11-15T09:22:13;99582.75;;;13.90;52.26
47706;BME280;33471;52.104;1.318;2022-11-15T09:24:40;99582.24;;;13.92;53.34
47706;BME280;33471;52.104;1.318;2022-11-15T09:27:08;99584.94;;;12.78;54.40
47706;BME280;33471;52.104;1.318;2022-11-15T09:29:36;99571.88;;;13.15;54.58
47706;BME280;33471;52.104;1.318;2022-11-15T09:32:03;99565.76;;;13.07;54.24
47706;BME280;33471;52.104;1.318;2022-11-15T09:34:31;99563.11;;;12.90;55.11
47706;BME280;33471;52.104;1.318;2022-11-15T09:36:58;99560.59;;;12.62;54.18
47706;BME280;33471;52.104;1.318;2022-11-15T09:39:25;99561.58;;;12.49;56.90
47706;BME280;33471;52.104;1.318;2022-11-15T09:42:03;99559.86;;;12.30;55.64
47706;BME280;33471;52.104;1.318;2022-11-15T09:44:43;99557.07;;;12.79;56.14
47706;BME280;33471;52.104;1.318;2022-11-15T09:47:32;99549.80;;;12.59;55.98
47706;BME280;33471;52.104;1.318;2022-11-15T09:50:09;99546.67;;;12.76;54.87
47706;BME280;33471;52.104;1.318;2022-11-15T09:52:41;99548.45;;;13.88;53.09
47706;BME280;33471;52.104;1.318;2022-11-15T09:55:11;99547.22;;;13.27;53.99
47706;BME280;33471;52.104;1.318;2022-11-15T09:57:48;99544.24;;;13.89;53.46
47706;BME280;33471;52.104;1.318;2022-11-15T10:00:19;99541.87;;;13.65;54.85
47706;BME280;33471;52.104;1.318;2022-11-15T10:02:58;99540.35;;;13.43;56.00
47706;BME280;33471;52.104;1.318;2022-11-15T10:05:40;99531.31;;;13.19;57.21
47706;BME280;33471;52.104;1.318;2022-11-15T10:08:20;99539.77;;;12.62;59.10
47706;BME280;33471;52.104;1.318;2022-11-15T10:10:56;99532.02;;;12.60;58.74
47706;BME280;33471;52.104;1.318;2022-11-15T10:13:26;99532.08;;;13.17;58.05
47706;BME280;33471;52.104;1.318;2022-11-15T10:16:04;99530.45;;;13.09;57.38
47706;BME280;33471;52.104;1.318;2022-11-15T10:18:35;99536.37;;;12.74;58.89
47706;BME280;33471;52.104;1.318;2022-11-15T10:21:14;99526.20;;;12.27;59.83
47706;BME280;33471;52.104;1.318;2022-11-15T10:23:42;99530.43;;;11.76;61.45
47706;BME280;33471;52.104;1.318;2022-11-15T10:26:13;99517.01;;;12.44;59.32
47706;BME280;33471;52.104;1.318;2022-11-15T10:28:42;99515.08;;;12.55;59.71
47706;BME280;33471;52.104;1.318;2022-11-15T10:31:23;99513.14;;;12.98;58.59
47706;BME280;33471;52.104;1.318;2022-11-15T10:33:50;99510.04;;;12.63;60.83
47706;BME280;33471;52.104;1.318;2022-11-15T10:36:20;99507.00;;;12.36;61.34
47706;BME280;33471;52.104;1.318;2022-11-15T10:38:55;99498.05;;;12.07;62.95
47706;BME280;33471;52.104;1.318;2022-11-15T10:41:29;99487.63;;;12.19;61.48
47706;BME280;33471;52.104;1.318;2022-11-15T10:44:29;99486.66;;;12.89;62.55
47706;BME280;33471;52.104;1.318;2022-11-15T10:47:19;99480.98;;;11.45;62.16
47706;BME280;33471;52.104;1.318;2022-11-15T10:49:56;99472.67;;;12.11;62.31
47706;BME280;33471;52.104;1.318;2022-11-15T10:52:24;99461.58;;;12.76;60.82
47706;BME280;33471;52.104;1.318;2022-11-15T10:54:56;99465.41;;;10.95;63.49
47706;BME280;33471;52.104;1.318;2022-11-15T10:57:26;99450.63;;;12.46;61.42
47706;BME280;33471;52.104;1.318;2022-11-15T10:59:56;99456.60;;;10.35;65.98
47706;BME280;33471;52.104;1.318;2022-11-15T11:02:31;99453.05;;;11.40;63.53
47706;BME280;33471;52.104;1.318;2022-11-15T11:05:00;99439.62;;;11.55;62.61
47706;BME280;33471;52.104;1.318;2022-11-15T11:07:29;99423.09;;;12.32;60.93
47706;BME280;33471;52.104;1.318;2022-11-15T11:09:59;99421.42;;;11.84;60.55
47706;BME280;33471;52.104;1.318;2022-11-15T11:12:29;99416.99;;;12.94;59.35
47706;BME280;33471;52.104;1.318;2022-11-15T11:14:58;99406.30;;;11.04;63.31
47706;BME280;33471;52.104;1.318;2022-11-15T11:17:34;99396.22;;;12.81;60.59
47706;BME280;33471;52.104;1.318;2022-11-15T11:20:10;99390.56;;;11.55;63.10
47706;BME280;33471;52.104;1.318;2022-11-15T11:22:46;99378.01;;;12.15;62.32
47706;BME280;33471;52.104;1.318;2022-11-15T11:25:26;99373.45;;;12.39;62.76
47706;BME280;33471;52.104;1.318;2022-11-15T11:28:09;99369.58;;;11.23;64.47
47706;BME280;33471;52.104;1.318;2022-11-15T11:30:47;99361.07;;;11.64;63.51
47706;BME280;33471;52.104;1.318;2022-11-15T11:33:18;99364.27;;;12.21;62.47
47706;BME280;33471;52.104;1.318;2022-11-15T11:35:58;99359.31;;;11.71;64.79
47706;BME280;33471;52.104;1.318;2022-11-15T11:38:39;99350.40;;;11.30;65.28
47706;BME280;33471;52.104;1.318;2022-11-15T11:41:17;99344.02;;;11.87;63.27
47706;BME280;33471;52.104;1.318;2022-11-15T11:43:56;99352.97;;;12.19;63.62
47706;BME280;33471;52.104;1.318;2022-11-15T11:46:45;99356.80;;;11.61;65.95
47706;BME280;33471;52.104;1.318;2022-11-15T11:49:19;99348.85;;;11.02;67.64
47706;BME280;33471;52.104;1.318;2022-11-15T11:51:55;99340.93;;;11.54;66.59
47706;BME280;33471;52.104;1.318;2022-11-15T11:54:33;99338.81;;;11.08;66.06
47706;BME280;33471;52.104;1.318;2022-11-15T11:57:10;99333.37;;;11.06;66.13
47706;BME280;33471;52.104;1.318;2022-11-15T11:59:43;99319.79;;;11.51;65.50
47706;BME280;33471;52.104;1.318;2022-11-15T12:02:21;99316.70;;;12.21;63.15
47706;BME280;33471;52.104;1.318;2022-11-15T12:04:57;99306.53;;;12.43;62.81
47706;BME280;33471;52.104;1.318;2022-11-15T12:07:32;99305.12;;;10.97;67.18
47706;BME280;33471;52.104;1.318;2022-11-15T12:10:05;99295.00;;;11.13;65.12
47706;BME280;33471;52.104;1.318;2022-11-15T12:12:41;99290.81;;;11.40;66.83
47706;BME280;33471;52.104;1.318;2022-11-15T12:15:15;99292.85;;;11.34;65.79
47706;BME280;33471;52.104;1.318;2022-11-15T12:17:44;99284.88;;;11.73;64.58
47706;BME280;33471;52.104;1.318;2022-11-15T12:20:16;99277.32;;;11.81;64.52
47706;BME280;33471;52.104;1.318;2022-11-15T12:22:48;99269.10;;;11.45;66.48
47706;BME280;33471;52.104;1.318;2022-11-15T12:25:21;99280.22;;;11.52;66.79
47706;BME280;33471;52.104;1.318;2022-11-15T12:27:53;99270.86;;;10.85;68.42
47706;BME280;33471;52.104;1.318;2022-11-15T12:30:25;99266.99;;;11.47;65.99
47706;BME280;33471;52.104;1.318;2022-11-15T12:32:57;99258.67;;;11.78;63.59
47706;BME280;33471;52.104;1.318;2022-11-15T12:35:27;99254.79;;;11.71;64.85
47706;BME280;33471;52.104;1.318;2022-11-15T12:37:57;99248.33;;;10.41;67.97
47706;BME280;33471;52.104;1.318;2022-11-15T12:40:26;99239.02;;;11.78;64.88
47706;BME280;33471;52.104;1.318;2022-11-15T12:43:00;99235.22;;;10.81;66.70
47706;BME280;33471;52.104;1.318;2022-11-15T12:45:31;99226.96;;;11.12;66.79
47706;BME280;33471;52.104;1.318;2022-11-15T12:48:47;99231.41;;;10.95;65.29
47706;BME280;33471;52.104;1.318;2022-11-15T12:51:15;99218.86;;;11.41;65.26
47706;BME280;33471;52.104;1.318;2022-11-15T12:53:43;99214.97;;;11.57;64.71
47706;BME280;33471;52.104;1.318;2022-11-15T12:56:20;99206.87;;;11.87;64.13
47706;BME280;33471;52.104;1.318;2022-11-15T12:58:51;99206.57;;;11.56;66.50
47706;BME280;33471;52.104;1.318;2022-11-15T13:01:58;99200.58;;;12.27;63.98
47706;BME280;33471;52.104;1.318;2022-11-15T13:04:28;99196.34;;;11.62;65.16
47706;BME280;33471;52.104;1.318;2022-11-15T13:06:58;99189.38;;;11.15;65.28
47706;BME280;33471;52.104;1.318;2022-11-15T13:09:57;99182.20;;;11.41;66.91
47706;BME280;33471;52.104;1.318;2022-11-15T13:12:58;99188.27;;;12.38;63.96
47706;BME280;33471;52.104;1.318;2022-11-15T13:15:36;99178.66;;;11.31;66.22